createdAt,value
2022-12-03T00:00:31.155Z,1.74
2022-12-03T00:02:57.877Z,1.63
2022-12-03T00:05:24.543Z,1.66
2022-12-03T00:07:50.991Z,1.69
2022-12-03T00:10:17.530Z,1.39
2022-12-03T00:12:44.041Z,1.60
2022-12-03T00:15:11.479Z,1.55
2022-12-03T00:17:38.050Z,1.55
2022-12-03T00:20:16.919Z,1.55
2022-12-03T00:22:43.401Z,1.55
2022-12-03T00:25:09.936Z,1.55
2022-12-03T00:27:36.458Z,1.50
2022-12-03T00:30:03.772Z,1.42
2022-12-03T00:32:30.612Z,1.54
2022-12-03T00:34:57.303Z,1.40
2022-12-03T00:37:23.732Z,1.28
2022-12-03T00:39:50.572Z,1.46
2022-12-03T00:42:17.028Z,1.42
2022-12-03T00:44:43.540Z,1.49
2022-12-03T00:47:10.188Z,1.51
2022-12-03T00:49:36.699Z,1.58
2022-12-03T00:52:03.305Z,1.54
2022-12-03T00:54:32.037Z,1.50
2022-12-03T00:56:58.907Z,1.49
2022-12-03T00:59:25.432Z,1.55
2022-12-03T01:01:52.095Z,1.50
2022-12-03T01:04:18.863Z,1.62
2022-12-03T01:06:45.551Z,1.43
2022-12-03T01:09:12.096Z,1.51
2022-12-03T01:11:38.685Z,1.36
2022-12-03T01:14:10.564Z,1.42
2022-12-03T01:16:37.777Z,1.30
2022-12-03T01:19:07.003Z,1.27
2022-12-03T01:21:33.505Z,1.51
2022-12-03T01:24:00.001Z,1.45
2022-12-03T01:26:26.690Z,1.38
2022-12-03T01:28:53.388Z,1.47
2022-12-03T01:31:20.215Z,1.43
2022-12-03T01:33:46.792Z,1.57
2022-12-03T01:36:13.323Z,1.53
2022-12-03T01:38:39.824Z,1.13
2022-12-03T01:41:11.542Z,1.50
2022-12-03T01:43:38.802Z,1.65
2022-12-03T01:46:06.680Z,1.48
2022-12-03T01:48:37.780Z,1.48
2022-12-03T01:51:05.864Z,1.45
2022-12-03T01:53:32.540Z,1.52
2022-12-03T01:55:59.251Z,1.48
2022-12-03T01:58:28.474Z,1.35
2022-12-03T02:00:56.189Z,1.44
2022-12-03T02:03:25.640Z,1.35
2022-12-03T02:05:53.008Z,1.53
2022-12-03T02:08:35.328Z,1.49
2022-12-03T02:11:18.264Z,1.51
2022-12-03T02:13:45.274Z,1.58
2022-12-03T02:16:11.796Z,1.65
2022-12-03T02:18:38.342Z,1.59
2022-12-03T02:21:18.694Z,1.64
2022-12-03T02:24:03.340Z,1.63
2022-12-03T02:26:29.801Z,1.70
2022-12-03T02:28:56.805Z,1.67
2022-12-03T02:31:24.152Z,1.67
2022-12-03T02:33:50.682Z,1.66
2022-12-03T02:36:17.254Z,1.69
2022-12-03T02:38:45.616Z,1.72
2022-12-03T02:41:15.814Z,1.54
2022-12-03T02:43:42.269Z,1.51
2022-12-03T02:46:08.852Z,1.59
2022-12-03T02:48:38.287Z,1.77
2022-12-03T02:51:08.690Z,1.74
2022-12-03T02:53:39.900Z,1.64
2022-12-03T02:56:06.851Z,1.72
2022-12-03T02:58:34.024Z,1.73
2022-12-03T03:01:03.036Z,1.74
2022-12-03T03:03:32.100Z,1.71
2022-12-03T03:06:02.187Z,1.61
2022-12-03T03:08:29.377Z,1.65
2022-12-03T03:10:57.291Z,1.57
2022-12-03T03:13:23.759Z,1.69
2022-12-03T03:15:50.341Z,1.65
2022-12-03T03:18:17.627Z,1.47
2022-12-03T03:20:45.074Z,1.49
2022-12-03T03:23:11.438Z,1.74
2022-12-03T03:25:39.509Z,1.32
2022-12-03T03:28:07.129Z,1.76
2022-12-03T03:30:37.182Z,1.58
2022-12-03T03:33:03.670Z,1.70
2022-12-03T03:35:30.406Z,1.69
2022-12-03T03:37:57.850Z,1.74
2022-12-03T03:40:25.556Z,1.64
2022-12-03T03:42:52.008Z,1.59
2022-12-03T03:45:24.008Z,1.53
2022-12-03T03:47:54.548Z,1.72
2022-12-03T03:50:21.653Z,1.72
2022-12-03T03:52:48.177Z,1.71
2022-12-03T03:55:14.925Z,1.75
2022-12-03T03:57:41.356Z,1.52
2022-12-03T04:00:08.810Z,1.72
2022-12-03T04:02:36.458Z,1.78
2022-12-03T04:05:03.379Z,1.65
2022-12-03T04:07:29.793Z,1.71
2022-12-03T04:09:56.224Z,1.73
2022-12-03T04:12:22.677Z,1.76
2022-12-03T04:14:49.090Z,1.66
2022-12-03T04:17:15.520Z,1.73
2022-12-03T04:19:41.914Z,1.50
2022-12-03T04:22:08.304Z,1.76
2022-12-03T04:24:34.785Z,1.82
2022-12-03T04:27:01.195Z,1.89
2022-12-03T04:29:27.649Z,1.59
2022-12-03T04:31:54.077Z,1.61
2022-12-03T04:34:20.515Z,1.65
2022-12-03T04:36:47.425Z,1.65
2022-12-03T04:39:14.009Z,1.56
2022-12-03T04:41:40.383Z,1.72
2022-12-03T04:44:06.987Z,1.68
2022-12-03T04:46:33.548Z,1.50
2022-12-03T04:48:59.933Z,1.68
2022-12-03T04:51:26.332Z,1.75
2022-12-03T04:53:52.765Z,1.71
2022-12-03T04:56:19.207Z,1.68
2022-12-03T04:58:45.634Z,1.79
2022-12-03T05:01:12.097Z,1.75
2022-12-03T05:03:38.535Z,1.74
2022-12-03T05:06:05.047Z,1.80
2022-12-03T05:08:31.471Z,1.98
2022-12-03T05:10:57.922Z,1.80
2022-12-03T05:13:24.332Z,1.83
2022-12-03T05:15:50.818Z,1.75
2022-12-03T05:18:17.247Z,1.74
2022-12-03T05:20:47.134Z,1.71
2022-12-03T05:23:19.286Z,1.83
2022-12-03T05:25:45.735Z,1.90
2022-12-03T05:28:12.253Z,1.57
2022-12-03T05:30:38.786Z,1.87
2022-12-03T05:33:05.312Z,1.75
2022-12-03T05:35:31.868Z,1.51
2022-12-03T05:37:58.283Z,1.83
2022-12-03T05:40:25.018Z,1.70
2022-12-03T05:42:51.451Z,1.51
2022-12-03T05:45:17.925Z,1.75
2022-12-03T05:47:44.643Z,1.72
2022-12-03T05:50:11.421Z,1.85
2022-12-03T05:52:37.869Z,1.82
2022-12-03T05:55:04.655Z,1.71
2022-12-03T05:57:31.063Z,1.68
2022-12-03T05:59:57.506Z,1.58
2022-12-03T06:02:24.046Z,1.78
2022-12-03T06:04:50.809Z,1.69
2022-12-03T06:07:17.441Z,1.71
2022-12-03T06:09:43.941Z,1.83
2022-12-03T06:12:10.342Z,1.74
2022-12-03T06:14:36.808Z,1.76
2022-12-03T06:17:03.471Z,1.80
2022-12-03T06:19:29.953Z,1.70
2022-12-03T06:21:56.546Z,1.70
2022-12-03T06:24:22.952Z,1.69
2022-12-03T06:26:49.459Z,1.75
2022-12-03T06:29:16.014Z,1.68
2022-12-03T06:31:42.592Z,1.66
2022-12-03T06:34:09.127Z,1.55
2022-12-03T06:36:35.523Z,1.77
2022-12-03T06:39:02.006Z,1.68
2022-12-03T06:41:28.409Z,1.58
2022-12-03T06:43:54.865Z,1.73
2022-12-03T06:46:21.409Z,1.62
2022-12-03T06:48:47.890Z,1.52
2022-12-03T06:51:14.285Z,1.64
2022-12-03T06:53:40.713Z,1.36
2022-12-03T06:56:07.450Z,1.63
2022-12-03T06:58:33.930Z,1.55
2022-12-03T07:01:00.396Z,1.47
2022-12-03T07:03:26.855Z,1.69
2022-12-03T07:05:53.279Z,1.48
2022-12-03T07:08:19.717Z,1.77
2022-12-03T07:10:46.193Z,1.51
2022-12-03T07:13:12.647Z,1.65
2022-12-03T07:15:39.059Z,1.49
2022-12-03T07:18:05.590Z,1.67
2022-12-03T07:20:32.071Z,1.57
2022-12-03T07:22:58.523Z,1.40
2022-12-03T07:25:24.953Z,1.54
2022-12-03T07:27:51.346Z,1.47
2022-12-03T07:30:18.497Z,1.39
2022-12-03T07:32:44.888Z,1.55
2022-12-03T07:35:11.392Z,1.77
2022-12-03T07:37:37.862Z,1.79
2022-12-03T07:40:06.130Z,1.58
2022-12-03T07:42:32.553Z,1.33
2022-12-03T07:44:58.978Z,1.38
2022-12-03T07:47:25.444Z,1.42
2022-12-03T07:49:51.866Z,1.43
2022-12-03T07:52:18.265Z,1.50
2022-12-03T07:54:44.738Z,1.62
2022-12-03T07:57:11.178Z,1.51
2022-12-03T07:59:37.604Z,1.78
2022-12-03T08:02:04.062Z,1.20
2022-12-03T08:04:30.504Z,1.39
2022-12-03T08:06:56.969Z,1.24
2022-12-03T08:09:23.407Z,1.24
2022-12-03T08:11:50.135Z,1.63
2022-12-03T08:14:18.856Z,1.39
2022-12-03T08:16:46.777Z,1.43
2022-12-03T08:19:15.974Z,1.62
2022-12-03T08:21:44.733Z,1.49
2022-12-03T08:24:18.014Z,1.43
2022-12-03T08:26:46.254Z,1.42
2022-12-03T08:29:18.052Z,1.56
2022-12-03T08:31:49.690Z,1.68
2022-12-03T08:34:23.355Z,1.63
2022-12-03T08:36:56.013Z,1.82
2022-12-03T08:39:29.537Z,1.49
2022-12-03T08:42:13.528Z,1.65
2022-12-03T08:44:40.332Z,1.41
2022-12-03T08:47:09.824Z,1.59
2022-12-03T08:49:37.076Z,1.64
2022-12-03T08:52:13.154Z,1.49
2022-12-03T08:54:39.593Z,1.56
2022-12-03T08:57:28.952Z,1.56
2022-12-03T09:00:11.609Z,1.28
2022-12-03T09:02:40.419Z,1.53
2022-12-03T09:05:20.847Z,1.21
2022-12-03T09:07:47.391Z,1.36
2022-12-03T09:10:13.823Z,1.43
2022-12-03T09:12:40.285Z,1.33
2022-12-03T09:15:07.696Z,1.28
2022-12-03T09:17:34.280Z,1.49
2022-12-03T09:20:00.813Z,1.42
2022-12-03T09:22:27.273Z,1.46
2022-12-03T09:24:54.076Z,1.46
2022-12-03T09:27:20.878Z,1.25
2022-12-03T09:29:47.419Z,1.60
2022-12-03T09:32:18.341Z,1.63
2022-12-03T09:34:45.277Z,1.53
2022-12-03T09:37:11.739Z,1.24
2022-12-03T09:39:38.160Z,1.50
2022-12-03T09:42:05.032Z,1.50
2022-12-03T09:44:34.445Z,1.31
2022-12-03T09:47:02.467Z,1.40
2022-12-03T09:49:30.303Z,1.37
2022-12-03T09:51:58.238Z,1.19
2022-12-03T09:54:27.713Z,1.35
2022-12-03T09:56:56.053Z,1.41
2022-12-03T09:59:25.713Z,1.42
2022-12-03T10:01:53.428Z,1.33
2022-12-03T10:04:20.222Z,1.50
2022-12-03T10:06:47.342Z,1.44
2022-12-03T10:09:16.843Z,1.40
2022-12-03T10:11:43.592Z,1.54
2022-12-03T10:14:13.611Z,1.57
2022-12-03T10:16:41.390Z,1.54
2022-12-03T10:19:11.543Z,1.52
2022-12-03T10:21:38.953Z,1.46
2022-12-03T10:24:21.309Z,1.28
2022-12-03T10:26:49.832Z,1.28
2022-12-03T10:29:20.546Z,1.49
2022-12-03T10:31:55.905Z,1.52
2022-12-03T10:34:33.976Z,1.56
2022-12-03T10:37:11.527Z,1.41
2022-12-03T10:40:03.904Z,1.42
2022-12-03T10:42:32.937Z,1.42
2022-12-03T10:45:19.598Z,1.64
2022-12-03T10:48:13.831Z,1.55
2022-12-03T10:50:57.324Z,1.45
2022-12-03T10:53:28.303Z,1.23
2022-12-03T10:55:55.423Z,1.43
2022-12-03T10:58:24.714Z,1.53
2022-12-03T11:00:53.486Z,1.51
2022-12-03T11:03:26.003Z,1.53
2022-12-03T11:05:53.788Z,1.36
2022-12-03T11:08:23.842Z,1.20
2022-12-03T11:11:21.264Z,1.58
2022-12-03T11:14:04.459Z,1.45
2022-12-03T11:16:39.957Z,1.49
2022-12-03T11:19:12.324Z,1.59
2022-12-03T11:22:03.545Z,1.66
2022-12-03T11:24:30.647Z,1.56
2022-12-03T11:26:57.010Z,1.52
2022-12-03T11:29:48.092Z,1.72
2022-12-03T11:32:39.288Z,1.77
2022-12-03T11:35:25.696Z,1.61
2022-12-03T11:37:52.694Z,1.87
2022-12-03T11:40:19.149Z,1.57
2022-12-03T11:42:47.641Z,1.59
2022-12-03T11:45:23.141Z,1.63
2022-12-03T11:47:58.381Z,1.40
2022-12-03T11:50:52.870Z,1.68
2022-12-03T11:53:23.005Z,1.29
2022-12-03T11:55:53.277Z,1.38
2022-12-03T11:58:30.255Z,1.47
2022-12-03T12:00:59.103Z,1.35
2022-12-03T12:03:36.974Z,1.65
2022-12-03T12:06:05.107Z,1.49
2022-12-03T12:08:32.304Z,1.53
2022-12-03T12:10:59.045Z,1.35
2022-12-03T12:13:31.255Z,1.57
2022-12-03T12:16:02.031Z,1.51
2022-12-03T12:18:43.901Z,1.34
2022-12-03T12:21:47.802Z,1.55
2022-12-03T12:24:38.605Z,1.72
2022-12-03T12:27:08.070Z,1.48
2022-12-03T12:29:36.101Z,1.54
2022-12-03T12:32:05.701Z,1.75
2022-12-03T12:34:32.123Z,1.70
2022-12-03T12:37:00.382Z,1.30
2022-12-03T12:39:26.992Z,1.26
2022-12-03T12:41:54.305Z,1.52
2022-12-03T12:44:21.804Z,1.51
2022-12-03T12:46:52.781Z,1.66
2022-12-03T12:49:19.369Z,1.66
2022-12-03T12:51:47.506Z,1.65
2022-12-03T12:54:16.187Z,1.57
2022-12-03T12:56:44.908Z,1.76
2022-12-03T12:59:14.685Z,1.47
2022-12-03T13:01:42.856Z,1.76
2022-12-03T13:04:23.597Z,1.89
2022-12-03T13:06:54.215Z,1.82
2022-12-03T13:09:23.507Z,1.73
2022-12-03T13:11:58.550Z,1.56
2022-12-03T13:14:30.193Z,1.61
2022-12-03T13:16:58.931Z,1.55
2022-12-03T13:19:49.540Z,1.39
2022-12-03T13:22:22.449Z,1.62
2022-12-03T13:24:50.584Z,1.37
2022-12-03T13:27:19.862Z,1.36
2022-12-03T13:29:49.081Z,1.30
2022-12-03T13:32:26.508Z,1.65
2022-12-03T13:34:55.399Z,1.53
2022-12-03T13:37:25.246Z,1.51
2022-12-03T13:39:54.523Z,1.27
2022-12-03T13:42:33.305Z,1.48
2022-12-03T13:45:01.540Z,1.70
2022-12-03T13:47:28.030Z,1.48
2022-12-03T13:50:01.873Z,1.16
2022-12-03T13:52:34.550Z,1.02
2022-12-03T13:55:03.563Z,1.18
2022-12-03T13:57:30.042Z,1.34
2022-12-03T13:59:56.871Z,1.55
2022-12-03T14:02:23.592Z,1.45
2022-12-03T14:04:51.354Z,1.49
2022-12-03T14:07:19.546Z,1.36
2022-12-03T14:09:45.989Z,1.58
2022-12-03T14:12:12.446Z,1.27
2022-12-03T14:14:38.901Z,1.13
2022-12-03T14:17:05.379Z,1.17
2022-12-03T14:19:32.343Z,1.09
2022-12-03T14:21:58.857Z,1.16
2022-12-03T14:24:25.952Z,1.23
2022-12-03T14:26:52.441Z,1.11
2022-12-03T14:29:18.885Z,1.26
2022-12-03T14:31:45.388Z,1.27
2022-12-03T14:34:11.995Z,1.27
2022-12-03T14:36:38.511Z,1.09
2022-12-03T14:39:04.986Z,1.37
2022-12-03T14:41:31.525Z,1.37
2022-12-03T14:43:57.954Z,1.10
2022-12-03T14:46:24.497Z,1.31
2022-12-03T14:48:50.957Z,1.28
2022-12-03T14:51:17.412Z,1.28
2022-12-03T14:53:43.834Z,1.61
2022-12-03T14:56:10.240Z,1.60
2022-12-03T14:58:36.681Z,1.78
2022-12-03T15:01:03.147Z,1.43
2022-12-03T15:03:29.624Z,1.39
2022-12-03T15:05:56.037Z,1.36
2022-12-03T15:08:22.520Z,1.38
2022-12-03T15:10:48.955Z,1.29
2022-12-03T15:13:15.395Z,1.50
2022-12-03T15:15:41.816Z,1.34
2022-12-03T15:18:08.236Z,1.29
2022-12-03T15:20:34.913Z,1.37
2022-12-03T15:23:01.446Z,1.16
2022-12-03T15:25:27.821Z,1.35
2022-12-03T15:27:54.358Z,1.22
2022-12-03T15:30:20.930Z,1.26
2022-12-03T15:32:47.484Z,0.84
2022-12-03T15:35:13.900Z,1.02
2022-12-03T15:37:40.353Z,1.43
2022-12-03T15:40:07.330Z,1.43
2022-12-03T15:42:33.748Z,1.27
2022-12-03T15:45:00.113Z,1.28
2022-12-03T15:47:26.544Z,1.40
2022-12-03T15:49:53.345Z,1.31
2022-12-03T15:52:19.839Z,1.20
2022-12-03T15:54:46.241Z,1.40
2022-12-03T15:57:12.639Z,0.86
2022-12-03T15:59:39.008Z,1.19
2022-12-03T16:02:05.521Z,1.37
2022-12-03T16:04:32.078Z,1.32
2022-12-03T16:06:58.464Z,1.11
2022-12-03T16:09:27.386Z,1.06
2022-12-03T16:11:53.955Z,1.26
2022-12-03T16:14:20.428Z,0.95
2022-12-03T16:16:47.021Z,1.06
2022-12-03T16:19:13.449Z,1.04
2022-12-03T16:21:39.875Z,1.12
2022-12-03T16:24:06.440Z,1.18
2022-12-03T16:26:32.884Z,1.30
2022-12-03T16:28:59.369Z,1.30
2022-12-03T16:31:25.853Z,1.26
2022-12-03T16:33:52.289Z,1.31
2022-12-03T16:36:18.710Z,0.99
2022-12-03T16:38:45.111Z,1.32
2022-12-03T16:41:11.604Z,1.28
2022-12-03T16:43:38.040Z,1.08
2022-12-03T16:46:06.062Z,1.35
2022-12-03T16:48:32.540Z,0.87
2022-12-03T16:50:58.978Z,1.35
2022-12-03T16:53:25.496Z,1.43
2022-12-03T16:55:51.941Z,0.98
2022-12-03T16:58:18.421Z,1.08
2022-12-03T17:00:44.864Z,1.18
2022-12-03T17:03:11.312Z,1.05
2022-12-03T17:05:37.863Z,1.09
2022-12-03T17:08:04.462Z,1.02
2022-12-03T17:10:31.100Z,0.98
2022-12-03T17:13:12.962Z,1.18
2022-12-03T17:15:40.258Z,1.17
2022-12-03T17:18:07.931Z,1.08
2022-12-03T17:20:34.640Z,1.28
2022-12-03T17:23:01.630Z,1.34
2022-12-03T17:25:28.587Z,1.23
2022-12-03T17:27:55.092Z,1.34
2022-12-03T17:30:21.544Z,1.32
2022-12-03T17:32:47.993Z,1.34
2022-12-03T17:35:14.483Z,1.20
2022-12-03T17:37:40.955Z,1.05
2022-12-03T17:40:11.543Z,1.20
2022-12-03T17:42:38.159Z,1.27
2022-12-03T17:45:05.244Z,1.05
2022-12-03T17:47:31.767Z,1.24
2022-12-03T17:49:58.170Z,1.24
2022-12-03T17:52:24.593Z,1.31
2022-12-03T17:57:37.467Z,1.03
2022-12-03T18:00:04.797Z,1.35
2022-12-03T18:02:31.284Z,1.07
2022-12-03T18:04:57.700Z,1.04
2022-12-03T18:07:24.117Z,1.07
2022-12-03T18:09:50.537Z,1.28
2022-12-03T18:12:17.000Z,0.82
2022-12-03T18:14:43.403Z,0.90
2022-12-03T18:17:09.922Z,0.73
2022-12-03T18:19:36.453Z,0.98
2022-12-03T18:22:02.904Z,1.08
2022-12-03T18:24:29.351Z,1.07
2022-12-03T18:26:55.844Z,0.83
2022-12-03T18:29:22.407Z,1.16
2022-12-03T18:31:48.883Z,0.93
2022-12-03T18:34:15.370Z,1.06
2022-12-03T18:36:42.127Z,0.75
2022-12-03T18:39:18.588Z,0.80
2022-12-03T18:41:45.030Z,0.93
2022-12-03T18:44:11.544Z,0.92
2022-12-03T18:46:52.921Z,0.97
2022-12-03T18:49:19.674Z,1.05
2022-12-03T18:51:46.148Z,1.06
2022-12-03T18:54:13.361Z,0.87
2022-12-03T18:56:41.460Z,1.14
2022-12-03T18:59:08.685Z,0.98
2022-12-03T19:01:35.972Z,1.05
2022-12-03T19:04:02.663Z,0.97
2022-12-03T19:06:29.216Z,1.03
2022-12-03T19:08:55.726Z,1.24
2022-12-03T19:11:22.563Z,1.24
2022-12-03T19:13:49.030Z,1.18
2022-12-03T19:16:15.480Z,1.29
2022-12-03T19:18:42.007Z,1.22
2022-12-03T19:21:10.797Z,1.12
2022-12-03T19:23:38.062Z,1.15
2022-12-03T19:26:06.572Z,1.22
2022-12-03T19:28:33.982Z,1.11
2022-12-03T19:31:06.580Z,1.03
2022-12-03T19:33:34.510Z,1.23
2022-12-03T19:36:05.694Z,1.15
2022-12-03T19:38:33.159Z,1.08
2022-12-03T19:41:05.964Z,1.23
2022-12-03T19:43:34.104Z,0.96
2022-12-03T19:46:09.029Z,1.00
2022-12-03T19:48:37.956Z,1.11
2022-12-03T19:51:32.424Z,1.17
2022-12-03T19:53:53.736Z,1.18
2022-12-03T19:56:20.221Z,1.16
2022-12-03T19:58:47.532Z,1.20
2022-12-03T20:01:20.629Z,0.78
2022-12-03T20:03:50.560Z,0.86
2022-12-03T20:06:20.681Z,0.88
2022-12-03T20:08:47.110Z,0.95
2022-12-03T20:11:22.096Z,1.10
2022-12-03T20:13:51.956Z,0.76
2022-12-03T20:16:18.388Z,1.03
2022-12-03T20:18:46.640Z,0.86
2022-12-03T20:21:16.065Z,0.88
2022-12-03T20:23:42.802Z,0.77
2022-12-03T20:26:11.019Z,1.02
2022-12-03T20:28:37.431Z,0.70
2022-12-03T20:31:07.178Z,0.88
2022-12-03T20:33:33.570Z,0.84
2022-12-03T20:36:00.002Z,0.84
2022-12-03T20:38:26.606Z,0.90
2022-12-03T20:40:53.413Z,0.80
2022-12-03T20:43:20.183Z,0.73
2022-12-03T20:45:46.668Z,0.87
2022-12-03T20:48:13.115Z,1.00
2022-12-03T20:50:39.948Z,0.64
2022-12-03T20:53:24.377Z,0.60
2022-12-03T20:55:55.954Z,0.67
2022-12-03T20:58:22.442Z,0.71
2022-12-03T21:00:48.968Z,0.71
2022-12-03T21:03:15.593Z,0.50
2022-12-03T21:05:42.592Z,0.84
2022-12-03T21:08:09.387Z,0.57
2022-12-03T21:10:41.037Z,0.77
2022-12-03T21:13:07.474Z,0.44
2022-12-03T21:15:33.984Z,0.55
2022-12-03T21:18:00.464Z,0.96
2022-12-03T21:20:26.863Z,0.86
2022-12-03T21:22:53.261Z,0.70
2022-12-03T21:25:19.632Z,0.81
2022-12-03T21:27:46.071Z,0.65
2022-12-03T21:30:12.729Z,0.86
2022-12-03T21:32:39.184Z,0.57
2022-12-03T21:35:06.020Z,0.73
2022-12-03T21:37:32.434Z,0.94
2022-12-03T21:39:58.863Z,0.63
2022-12-03T21:42:36.838Z,0.82
2022-12-03T21:45:06.523Z,0.73
2022-12-03T21:47:37.163Z,0.50
2022-12-03T21:50:06.039Z,0.56
2022-12-03T21:52:33.809Z,0.49
2022-12-03T21:55:00.256Z,0.74
2022-12-03T21:57:26.785Z,0.67
2022-12-03T21:59:54.974Z,0.60
2022-12-03T22:02:22.174Z,0.56
2022-12-03T22:04:51.417Z,0.77
2022-12-03T22:07:20.257Z,0.44
2022-12-03T22:09:46.780Z,0.53
2022-12-03T22:12:13.176Z,0.27
2022-12-03T22:14:39.640Z,0.43
2022-12-03T22:17:06.073Z,0.46
2022-12-03T22:19:32.638Z,0.50
2022-12-03T22:21:59.158Z,0.55
2022-12-03T22:24:25.573Z,0.41
2022-12-03T22:26:51.933Z,0.39
2022-12-03T22:29:18.380Z,0.57
2022-12-03T22:31:44.803Z,0.43
2022-12-03T22:34:11.305Z,0.44
2022-12-03T22:36:37.819Z,0.49
2022-12-03T22:39:04.434Z,0.66
2022-12-03T22:41:30.950Z,0.52
2022-12-03T22:43:57.367Z,0.74
2022-12-03T22:46:23.904Z,0.68
2022-12-03T22:48:50.405Z,0.31
2022-12-03T22:51:22.404Z,0.37
2022-12-03T22:53:54.712Z,0.49
2022-12-03T22:56:21.143Z,0.62
2022-12-03T22:58:47.645Z,0.48
2022-12-03T23:01:22.348Z,0.73
2022-12-03T23:03:49.145Z,0.72
2022-12-03T23:06:16.011Z,0.80
2022-12-03T23:08:42.687Z,0.74
2022-12-03T23:11:09.198Z,0.72
2022-12-03T23:13:36.438Z,0.76
2022-12-03T23:16:03.950Z,0.82
2022-12-03T23:18:30.656Z,0.65
2022-12-03T23:20:57.560Z,0.75
2022-12-03T23:23:25.921Z,0.87
2022-12-03T23:26:01.116Z,0.88
2022-12-03T23:28:29.331Z,0.82
2022-12-03T23:30:56.510Z,0.87
2022-12-03T23:33:23.908Z,0.78
2022-12-03T23:35:50.670Z,0.84
2022-12-03T23:38:17.396Z,0.73
2022-12-03T23:40:48.013Z,0.81
2022-12-03T23:43:15.225Z,0.82
2022-12-03T23:45:41.692Z,0.72
2022-12-03T23:48:08.175Z,0.68
2022-12-03T23:50:34.575Z,0.83
2022-12-03T23:53:00.998Z,0.56
2022-12-03T23:55:27.407Z,0.68
2022-12-03T23:57:53.839Z,0.64
